sensor_id;sensor_type;location;lat;lon;timestamp;pressure;altitude;pressure_sealevel;temperature;humidity
10832;BME280;5469;48.574;8.768;2023-03-15T00:01:12;94373.56;;;4.31;nan
10832;BME280;5469;48.574;8.768;2023-03-15T00:03:49;94394.22;;;4.06;nan
10832;BME280;5469;48.574;8.768;2023-03-15T00:06:25;94409.03;;;3.95;nan
10832;BME280;5469;48.574;8.768;2023-03-15T00:09:01;94401.66;;;4.14;nan
10832;BME280;5469;48.574;8.768;2023-03-15T00:11:38;94409.47;;;4.09;nan
10832;BME280;5469;48.574;8.768;2023-03-15T00:14:14;94404.00;;;3.93;nan
10832;BME280;5469;48.574;8.768;2023-03-15T00:16:49;94416.88;;;3.95;nan
10832;BME280;5469;48.574;8.768;2023-03-15T00:19:24;94430.44;;;4.09;nan
10832;BME280;5469;48.574;8.768;2023-03-15T00:21:59;94434.13;;;4.08;nan
10832;BME280;5469;48.574;8.768;2023-03-15T00:24:34;94436.66;;;4.03;nan
10832;BME280;5469;48.574;8.768;2023-03-15T00:27:11;94435.78;;;3.46;nan
10832;BME280;5469;48.574;8.768;2023-03-15T00:29:46;94440.00;;;3.47;nan
10832;BME280;5469;48.574;8.768;2023-03-15T00:32:21;94464.38;;;3.65;nan
10832;BME280;5469;48.574;8.768;2023-03-15T00:34:56;94468.59;;;3.66;nan
10832;BME280;5469;48.574;8.768;2023-03-15T00:37:32;94466.06;;;3.71;nan
10832;BME280;5469;48.574;8.768;2023-03-15T00:40:09;94471.16;;;3.61;nan
10832;BME280;5469;48.574;8.768;2023-03-15T00:42:46;94476.84;;;3.58;nan
10832;BME280;5469;48.574;8.768;2023-03-15T00:45:23;94476.91;;;3.63;nan
10832;BME280;5469;48.574;8.768;2023-03-15T00:47:58;94478.13;;;3.72;nan
10832;BME280;5469;48.574;8.768;2023-03-15T00:50:34;94480.34;;;3.80;nan
10832;BME280;5469;48.574;8.768;2023-03-15T00:53:10;94486.38;;;3.64;nan
10832;BME280;5469;48.574;8.768;2023-03-15T00:55:45;94491.63;;;3.64;nan
10832;BME280;5469;48.574;8.768;2023-03-15T00:58:22;94498.44;;;3.65;nan
10832;BME280;5469;48.574;8.768;2023-03-15T01:00:57;94491.06;;;3.62;nan
10832;BME280;5469;48.574;8.768;2023-03-15T01:03:34;94505.47;;;3.93;nan
10832;BME280;5469;48.574;8.768;2023-03-15T01:06:12;94501.72;;;3.72;nan
10832;BME280;5469;48.574;8.768;2023-03-15T01:08:48;94513.06;;;3.61;nan
10832;BME280;5469;48.574;8.768;2023-03-15T01:11:26;94509.72;;;3.48;nan
10832;BME280;5469;48.574;8.768;2023-03-15T01:14:03;94509.72;;;3.48;nan
10832;BME280;5469;48.574;8.768;2023-03-15T01:16:41;94529.81;;;3.60;nan
10832;BME280;5469;48.574;8.768;2023-03-15T01:19:17;94527.47;;;3.46;nan
10832;BME280;5469;48.574;8.768;2023-03-15T01:21:52;94536.38;;;3.45;nan
10832;BME280;5469;48.574;8.768;2023-03-15T01:24:27;94546.59;;;3.76;nan
10832;BME280;5469;48.574;8.768;2023-03-15T01:27:02;94547.88;;;3.16;nan
10832;BME280;5469;48.574;8.768;2023-03-15T01:29:39;94557.09;;;2.54;nan
10832;BME280;5469;48.574;8.768;2023-03-15T01:32:15;94563.56;;;2.63;nan
10832;BME280;5469;48.574;8.768;2023-03-15T01:34:51;94552.53;;;2.38;nan
10832;BME280;5469;48.574;8.768;2023-03-15T01:37:26;94568.69;;;2.70;nan
10832;BME280;5469;48.574;8.768;2023-03-15T01:40:02;94572.84;;;3.06;nan
10832;BME280;5469;48.574;8.768;2023-03-15T01:42:52;94575.50;;;2.59;nan
10832;BME280;5469;48.574;8.768;2023-03-15T01:48:42;94565.72;;;2.43;nan
10832;BME280;5469;48.574;8.768;2023-03-15T01:51:22;94567.84;;;2.81;nan
10832;BME280;5469;48.574;8.768;2023-03-15T01:54:02;94579.13;;;2.11;nan
10832;BME280;5469;48.574;8.768;2023-03-15T01:56:42;94572.31;;;2.81;nan
10832;BME280;5469;48.574;8.768;2023-03-15T01:59:24;94575.94;;;2.80;nan
10832;BME280;5469;48.574;8.768;2023-03-15T02:02:02;94561.53;;;2.42;nan
10832;BME280;5469;48.574;8.768;2023-03-15T02:07:55;94564.81;;;2.49;nan
10832;BME280;5469;48.574;8.768;2023-03-15T02:10:34;94596.53;;;1.75;nan
10832;BME280;5469;48.574;8.768;2023-03-15T02:13:13;94586.97;;;2.11;nan
10832;BME280;5469;48.574;8.768;2023-03-15T02:15:49;94591.84;;;2.19;nan
10832;BME280;5469;48.574;8.768;2023-03-15T02:18:27;94591.41;;;2.23;nan
10832;BME280;5469;48.574;8.768;2023-03-15T02:21:13;94595.75;;;2.52;nan
10832;BME280;5469;48.574;8.768;2023-03-15T02:24:04;94604.25;;;2.24;nan
10832;BME280;5469;48.574;8.768;2023-03-15T02:26:47;94579.16;;;1.81;nan
10832;BME280;5469;48.574;8.768;2023-03-15T02:29:34;94600.88;;;1.82;nan
10832;BME280;5469;48.574;8.768;2023-03-15T02:32:12;94605.50;;;2.22;nan
10832;BME280;5469;48.574;8.768;2023-03-15T02:34:53;94598.63;;;1.97;nan
10832;BME280;5469;48.574;8.768;2023-03-15T02:37:46;94599.56;;;2.03;nan
10832;BME280;5469;48.574;8.768;2023-03-15T02:40:36;94614.03;;;2.40;nan
10832;BME280;5469;48.574;8.768;2023-03-15T02:43:22;94623.16;;;2.50;nan
10832;BME280;5469;48.574;8.768;2023-03-15T02:46:01;94624.00;;;1.66;nan
10832;BME280;5469;48.574;8.768;2023-03-15T02:48:42;94623.13;;;2.38;nan
10832;BME280;5469;48.574;8.768;2023-03-15T02:51:29;94617.81;;;2.56;nan
10832;BME280;5469;48.574;8.768;2023-03-15T02:54:05;94618.44;;;2.16;nan
10832;BME280;5469;48.574;8.768;2023-03-15T02:56:40;94635.41;;;1.84;nan
10832;BME280;5469;48.574;8.768;2023-03-15T02:59:20;94607.88;;;1.69;nan
10832;BME280;5469;48.574;8.768;2023-03-15T03:02:31;94631.84;;;1.66;nan
10832;BME280;5469;48.574;8.768;2023-03-15T03:05:08;94640.34;;;2.04;nan
10832;BME280;5469;48.574;8.768;2023-03-15T03:07:43;94633.97;;;1.39;nan
10832;BME280;5469;48.574;8.768;2023-03-15T03:10:20;94644.34;;;1.46;nan
10832;BME280;5469;48.574;8.768;2023-03-15T03:12:56;94651.59;;;1.44;nan
10832;BME280;5469;48.574;8.768;2023-03-15T03:15:33;94644.63;;;1.19;nan
10832;BME280;5469;48.574;8.768;2023-03-15T03:18:10;94674.88;;;1.94;nan
10832;BME280;5469;48.574;8.768;2023-03-15T03:20:45;94679.16;;;1.88;nan
10832;BME280;5469;48.574;8.768;2023-03-15T03:23:22;94669.22;;;1.79;nan
10832;BME280;5469;48.574;8.768;2023-03-15T03:26:00;94680.56;;;2.33;nan
10832;BME280;5469;48.574;8.768;2023-03-15T03:28:35;94675.97;;;2.16;nan
10832;BME280;5469;48.574;8.768;2023-03-15T03:34:29;94690.19;;;1.42;nan
10832;BME280;5469;48.574;8.768;2023-03-15T03:37:12;94681.47;;;1.66;nan
10832;BME280;5469;48.574;8.768;2023-03-15T03:39:48;94679.72;;;1.42;nan
10832;BME280;5469;48.574;8.768;2023-03-15T03:42:23;94698.16;;;1.47;nan
10832;BME280;5469;48.574;8.768;2023-03-15T03:44:58;94688.78;;;2.06;nan
10832;BME280;5469;48.574;8.768;2023-03-15T03:47:33;94702.28;;;2.03;nan
10832;BME280;5469;48.574;8.768;2023-03-15T03:50:12;94716.63;;;2.12;nan
10832;BME280;5469;48.574;8.768;2023-03-15T03:52:47;94713.53;;;2.34;nan
10832;BME280;5469;48.574;8.768;2023-03-15T03:55:22;94717.09;;;2.09;nan
10832;BME280;5469;48.574;8.768;2023-03-15T03:57:58;94725.59;;;2.35;nan
10832;BME280;5469;48.574;8.768;2023-03-15T04:00:33;94725.19;;;2.61;nan
10832;BME280;5469;48.574;8.768;2023-03-15T04:03:09;94730.56;;;1.58;nan
10832;BME280;5469;48.574;8.768;2023-03-15T04:05:47;94724.56;;;1.57;nan
10832;BME280;5469;48.574;8.768;2023-03-15T04:08:27;94740.84;;;2.08;nan
10832;BME280;5469;48.574;8.768;2023-03-15T04:11:03;94731.53;;;2.12;nan
10832;BME280;5469;48.574;8.768;2023-03-15T04:13:38;94746.47;;;1.38;nan
10832;BME280;5469;48.574;8.768;2023-03-15T04:16:13;94749.50;;;1.53;nan
10832;BME280;5469;48.574;8.768;2023-03-15T04:18:49;94752.13;;;1.35;nan
10832;BME280;5469;48.574;8.768;2023-03-15T04:21:25;94762.16;;;1.74;nan
10832;BME280;5469;48.574;8.768;2023-03-15T04:24:05;94753.56;;;1.86;nan
10832;BME280;5469;48.574;8.768;2023-03-15T04:26:41;94748.69;;;1.89;nan
10832;BME280;5469;48.574;8.768;2023-03-15T04:29:16;94764.75;;;1.93;nan
10832;BME280;5469;48.574;8.768;2023-03-15T04:31:50;94768.91;;;1.82;nan
10832;BME280;5469;48.574;8.768;2023-03-15T04:34:25;94775.94;;;2.00;nan
10832;BME280;5469;48.574;8.768;2023-03-15T04:37:02;94771.88;;;1.67;nan
10832;BME280;5469;48.574;8.768;2023-03-15T04:39:38;94765.66;;;2.17;nan
10832;BME280;5469;48.574;8.768;2023-03-15T04:42:15;94765.53;;;1.93;nan
10832;BME280;5469;48.574;8.768;2023-03-15T04:44:50;94757.47;;;2.13;nan
10832;BME280;5469;48.574;8.768;2023-03-15T04:47:27;94774.56;;;1.98;nan
10832;BME280;5469;48.574;8.768;2023-03-15T04:50:02;94771.25;;;2.21;nan
10832;BME280;5469;48.574;8.768;2023-03-15T04:52:39;94771.03;;;2.22;nan
10832;BME280;5469;48.574;8.768;2023-03-15T04:55:14;94774.34;;;2.29;nan
10832;BME280;5469;48.574;8.768;2023-03-15T04:57:49;94767.34;;;2.11;nan
10832;BME280;5469;48.574;8.768;2023-03-15T05:00:25;94778.25;;;2.08;nan
10832;BME280;5469;48.574;8.768;2023-03-15T05:03:00;94776.84;;;2.24;nan
10832;BME280;5469;48.574;8.768;2023-03-15T05:05:36;94775.31;;;2.16;nan
10832;BME280;5469;48.574;8.768;2023-03-15T05:08:12;94762.41;;;2.03;nan
10832;BME280;5469;48.574;8.768;2023-03-15T05:10:48;94783.47;;;2.08;nan
10832;BME280;5469;48.574;8.768;2023-03-15T05:13:22;94774.31;;;1.25;nan
10832;BME280;5469;48.574;8.768;2023-03-15T05:15:58;94771.88;;;1.05;nan
10832;BME280;5469;48.574;8.768;2023-03-15T05:18:33;94777.44;;;1.34;nan
10832;BME280;5469;48.574;8.768;2023-03-15T05:21:08;94768.56;;;0.92;nan
10832;BME280;5469;48.574;8.768;2023-03-15T05:23:46;94776.44;;;1.10;nan
10832;BME280;5469;48.574;8.768;2023-03-15T05:26:21;94781.88;;;1.34;nan
10832;BME280;5469;48.574;8.768;2023-03-15T05:28:57;94780.91;;;1.03;nan
10832;BME280;5469;48.574;8.768;2023-03-15T05:31:32;94786.16;;;1.46;nan
10832;BME280;5469;48.574;8.768;2023-03-15T05:34:10;94786.69;;;0.86;nan
10832;BME280;5469;48.574;8.768;2023-03-15T05:36:45;94788.16;;;1.01;nan
10832;BME280;5469;48.574;8.768;2023-03-15T05:39:21;94794.44;;;0.68;nan
10832;BME280;5469;48.574;8.768;2023-03-15T05:41:56;94799.81;;;0.98;nan
10832;BME280;5469;48.574;8.768;2023-03-15T05:44:31;94795.81;;;0.96;nan
10832;BME280;5469;48.574;8.768;2023-03-15T05:47:07;94793.06;;;0.91;nan
10832;BME280;5469;48.574;8.768;2023-03-15T05:49:44;94797.22;;;1.23;nan
10832;BME280;5469;48.574;8.768;2023-03-15T05:52:19;94800.22;;;1.02;nan
10832;BME280;5469;48.574;8.768;2023-03-15T05:54:55;94791.31;;;1.09;nan
10832;BME280;5469;48.574;8.768;2023-03-15T05:57:32;94787.94;;;1.27;nan
10832;BME280;5469;48.574;8.768;2023-03-15T06:00:10;94795.81;;;1.46;nan
10832;BME280;5469;48.574;8.768;2023-03-15T06:02:46;94800.41;;;1.69;nan
10832;BME280;5469;48.574;8.768;2023-03-15T06:05:21;94799.13;;;1.35;nan
10832;BME280;5469;48.574;8.768;2023-03-15T06:07:57;94796.47;;;1.16;nan
10832;BME280;5469;48.574;8.768;2023-03-15T06:10:35;94808.22;;;1.07;nan
10832;BME280;5469;48.574;8.768;2023-03-15T06:13:10;94802.88;;;1.20;nan
10832;BME280;5469;48.574;8.768;2023-03-15T06:15:48;94810.00;;;1.31;nan
10832;BME280;5469;48.574;8.768;2023-03-15T06:18:23;94817.81;;;1.31;nan
10832;BME280;5469;48.574;8.768;2023-03-15T06:20:58;94807.66;;;1.23;nan
10832;BME280;5469;48.574;8.768;2023-03-15T06:23:33;94814.69;;;1.48;nan
10832;BME280;5469;48.574;8.768;2023-03-15T06:26:10;94813.16;;;1.40;nan
10832;BME280;5469;48.574;8.768;2023-03-15T06:28:47;94809.69;;;1.21;nan
10832;BME280;5469;48.574;8.768;2023-03-15T06:31:23;94816.44;;;1.29;nan
10832;BME280;5469;48.574;8.768;2023-03-15T06:34:06;94811.59;;;1.33;nan
10832;BME280;5469;48.574;8.768;2023-03-15T06:36:41;94827.03;;;1.59;nan
10832;BME280;5469;48.574;8.768;2023-03-15T06:39:17;94820.00;;;1.35;nan
10832;BME280;5469;48.574;8.768;2023-03-15T06:41:54;94824.50;;;1.27;nan
10832;BME280;5469;48.574;8.768;2023-03-15T06:44:35;94835.78;;;1.21;nan
10832;BME280;5469;48.574;8.768;2023-03-15T06:47:11;94824.38;;;1.41;nan
10832;BME280;5469;48.574;8.768;2023-03-15T06:49:47;94832.25;;;1.59;nan
10832;BME280;5469;48.574;8.768;2023-03-15T06:52:25;94836.84;;;1.39;nan
10832;BME280;5469;48.574;8.768;2023-03-15T06:55:00;94838.19;;;1.48;nan
10832;BME280;5469;48.574;8.768;2023-03-15T06:57:36;94836.25;;;1.37;nan
10832;BME280;5469;48.574;8.768;2023-03-15T07:00:14;94835.25;;;1.38;nan
10832;BME280;5469;48.574;8.768;2023-03-15T07:02:50;94838.81;;;1.43;nan
10832;BME280;5469;48.574;8.768;2023-03-15T07:05:25;94838.53;;;1.77;nan
10832;BME280;5469;48.574;8.768;2023-03-15T07:08:00;94843.44;;;1.66;nan
10832;BME280;5469;48.574;8.768;2023-03-15T07:10:35;94843.94;;;1.57;nan
10832;BME280;5469;48.574;8.768;2023-03-15T07:13:12;94849.81;;;1.70;nan
10832;BME280;5469;48.574;8.768;2023-03-15T07:15:53;94849.47;;;2.04;nan
10832;BME280;5469;48.574;8.768;2023-03-15T07:18:28;94849.13;;;2.00;nan
10832;BME280;5469;48.574;8.768;2023-03-15T07:21:06;94860.22;;;2.14;nan
10832;BME280;5469;48.574;8.768;2023-03-15T07:23:41;94856.34;;;2.35;nan
10832;BME280;5469;48.574;8.768;2023-03-15T07:26:16;94864.50;;;1.90;nan
10832;BME280;5469;48.574;8.768;2023-03-15T07:28:52;94862.91;;;2.07;nan
10832;BME280;5469;48.574;8.768;2023-03-15T07:31:27;94860.88;;;2.28;nan
10832;BME280;5469;48.574;8.768;2023-03-15T07:34:03;94873.06;;;1.97;nan
10832;BME280;5469;48.574;8.768;2023-03-15T07:36:39;94878.88;;;2.36;nan
10832;BME280;5469;48.574;8.768;2023-03-15T07:39:14;94880.34;;;1.95;nan
10832;BME280;5469;48.574;8.768;2023-03-15T07:41:51;94882.72;;;2.15;nan
10832;BME280;5469;48.574;8.768;2023-03-15T07:44:28;94884.25;;;2.23;nan
10832;BME280;5469;48.574;8.768;2023-03-15T07:47:05;94882.31;;;2.18;nan
10832;BME280;5469;48.574;8.768;2023-03-15T07:49:40;94878.00;;;2.42;nan
10832;BME280;5469;48.574;8.768;2023-03-15T07:52:15;94876.94;;;2.31;nan
10832;BME280;5469;48.574;8.768;2023-03-15T07:54:50;94874.19;;;2.56;nan
10832;BME280;5469;48.574;8.768;2023-03-15T07:57:25;94877.41;;;2.58;nan
10832;BME280;5469;48.574;8.768;2023-03-15T08:00:02;94873.50;;;2.79;nan
10832;BME280;5469;48.574;8.768;2023-03-15T08:02:39;94873.59;;;2.73;nan
10832;BME280;5469;48.574;8.768;2023-03-15T08:05:14;94883.56;;;2.64;nan
10832;BME280;5469;48.574;8.768;2023-03-15T08:07:52;94884.16;;;2.66;nan
10832;BME280;5469;48.574;8.768;2023-03-15T08:10:28;94880.38;;;2.92;nan
10832;BME280;5469;48.574;8.768;2023-03-15T08:13:03;94875.78;;;3.18;nan
10832;BME280;5469;48.574;8.768;2023-03-15T08:15:40;94879.38;;;2.93;nan
10832;BME280;5469;48.574;8.768;2023-03-15T08:18:16;94884.41;;;3.06;nan
10832;BME280;5469;48.574;8.768;2023-03-15T08:20:52;94882.28;;;2.85;nan
10832;BME280;5469;48.574;8.768;2023-03-15T08:23:27;94878.47;;;2.99;nan
10832;BME280;5469;48.574;8.768;2023-03-15T08:26:02;94879.84;;;3.14;nan
10832;BME280;5469;48.574;8.768;2023-03-15T08:28:37;94883.69;;;3.30;nan
10832;BME280;5469;48.574;8.768;2023-03-15T08:31:14;94885.59;;;3.34;nan
10832;BME280;5469;48.574;8.768;2023-03-15T08:33:50;94883.22;;;3.44;nan
10832;BME280;5469;48.574;8.768;2023-03-15T08:36:26;94891.88;;;3.45;nan
10832;BME280;5469;48.574;8.768;2023-03-15T08:39:01;94893.06;;;3.19;nan
10832;BME280;5469;48.574;8.768;2023-03-15T08:41:38;94895.22;;;3.64;nan
10832;BME280;5469;48.574;8.768;2023-03-15T08:44:13;94890.22;;;3.98;nan
10832;BME280;5469;48.574;8.768;2023-03-15T08:46:50;94902.63;;;3.79;nan
10832;BME280;5469;48.574;8.768;2023-03-15T08:49:25;94900.47;;;3.64;nan
10832;BME280;5469;48.574;8.768;2023-03-15T08:52:00;94900.09;;;3.60;nan
10832;BME280;5469;48.574;8.768;2023-03-15T08:54:35;94903.44;;;3.79;nan
10832;BME280;5469;48.574;8.768;2023-03-15T08:57:11;94902.34;;;3.45;nan
10832;BME280;5469;48.574;8.768;2023-03-15T08:59:46;94904.56;;;3.83;nan
10832;BME280;5469;48.574;8.768;2023-03-15T09:02:23;94909.94;;;4.00;nan
10832;BME280;5469;48.574;8.768;2023-03-15T09:04:58;94916.19;;;4.11;nan
10832;BME280;5469;48.574;8.768;2023-03-15T09:07:33;94916.41;;;4.85;nan
10832;BME280;5469;48.574;8.768;2023-03-15T09:10:09;94916.06;;;4.81;nan
10832;BME280;5469;48.574;8.768;2023-03-15T09:12:47;94907.41;;;4.69;nan
10832;BME280;5469;48.574;8.768;2023-03-15T09:15:22;94917.72;;;4.59;nan
10832;BME280;5469;48.574;8.768;2023-03-15T09:17:59;94925.47;;;4.54;nan
10832;BME280;5469;48.574;8.768;2023-03-15T09:20:34;94922.78;;;4.49;nan
10832;BME280;5469;48.574;8.768;2023-03-15T09:23:09;94934.03;;;4.61;nan
10832;BME280;5469;48.574;8.768;2023-03-15T09:25:45;94928.72;;;4.85;nan
10832;BME280;5469;48.574;8.768;2023-03-15T09:28:20;94923.75;;;5.29;nan
10832;BME280;5469;48.574;8.768;2023-03-15T09:30:55;94926.53;;;5.22;nan
10832;BME280;5469;48.574;8.768;2023-03-15T09:33:31;94929.84;;;4.89;nan
10832;BME280;5469;48.574;8.768;2023-03-15T09:36:07;94931.19;;;4.51;nan
10832;BME280;5469;48.574;8.768;2023-03-15T09:38:43;94924.22;;;4.97;nan
10832;BME280;5469;48.574;8.768;2023-03-15T09:41:26;94924.59;;;5.17;nan
10832;BME280;5469;48.574;8.768;2023-03-15T09:44:11;94925.41;;;5.63;nan
10832;BME280;5469;48.574;8.768;2023-03-15T09:46:56;94931.72;;;5.34;nan
10832;BME280;5469;48.574;8.768;2023-03-15T09:49:43;94924.09;;;6.55;nan
10832;BME280;5469;48.574;8.768;2023-03-15T09:52:28;94922.53;;;7.53;nan
10832;BME280;5469;48.574;8.768;2023-03-15T09:55:10;94931.78;;;6.40;nan
10832;BME280;5469;48.574;8.768;2023-03-15T09:57:49;94930.34;;;6.49;nan
10832;BME280;5469;48.574;8.768;2023-03-15T10:00:30;94925.09;;;6.93;nan
10832;BME280;5469;48.574;8.768;2023-03-15T10:03:08;94925.53;;;8.94;nan
10832;BME280;5469;48.574;8.768;2023-03-15T10:05:53;94925.75;;;8.35;nan
10832;BME280;5469;48.574;8.768;2023-03-15T10:08:30;94927.22;;;9.31;nan
10832;BME280;5469;48.574;8.768;2023-03-15T10:11:11;94925.53;;;8.89;nan
10832;BME280;5469;48.574;8.768;2023-03-15T10:14:08;94931.50;;;9.52;nan
10832;BME280;5469;48.574;8.768;2023-03-15T10:16:49;94918.13;;;10.90;nan
10832;BME280;5469;48.574;8.768;2023-03-15T10:19:29;94927.31;;;11.13;nan
10832;BME280;5469;48.574;8.768;2023-03-15T10:22:14;94928.50;;;12.44;nan
10832;BME280;5469;48.574;8.768;2023-03-15T10:24:58;94926.50;;;12.84;nan
10832;BME280;5469;48.574;8.768;2023-03-15T10:27:39;94931.00;;;11.12;nan
10832;BME280;5469;48.574;8.768;2023-03-15T10:30:18;64575.81;;;-144.83;100.00
10832;BME280;5469;48.574;8.768;2023-03-15T10:32:58;94931.00;;;11.12;nan
10832;BME280;5469;48.574;8.768;2023-03-15T10:35:36;94932.84;;;8.71;nan
10832;BME280;5469;48.574;8.768;2023-03-15T10:38:17;94935.28;;;8.36;nan
10832;BME280;5469;48.574;8.768;2023-03-15T10:40:55;94925.72;;;10.01;nan
10832;BME280;5469;48.574;8.768;2023-03-15T10:43:33;94934.72;;;8.81;nan
10832;BME280;5469;48.574;8.768;2023-03-15T10:46:11;94928.63;;;11.11;nan
10832;BME280;5469;48.574;8.768;2023-03-15T10:48:55;94937.94;;;11.58;nan
10832;BME280;5469;48.574;8.768;2023-03-15T10:51:32;94938.19;;;11.07;nan
10832;BME280;5469;48.574;8.768;2023-03-15T10:54:14;94943.63;;;9.33;nan
10832;BME280;5469;48.574;8.768;2023-03-15T10:56:54;94952.00;;;9.04;nan
10832;BME280;5469;48.574;8.768;2023-03-15T10:59:33;94935.78;;;9.79;nan
10832;BME280;5469;48.574;8.768;2023-03-15T11:02:18;94933.63;;;10.12;nan
10832;BME280;5469;48.574;8.768;2023-03-15T11:05:02;94946.69;;;8.99;nan
10832;BME280;5469;48.574;8.768;2023-03-15T11:07:39;94940.38;;;9.05;nan
10832;BME280;5469;48.574;8.768;2023-03-15T11:10:33;94933.59;;;9.35;nan
10832;BME280;5469;48.574;8.768;2023-03-15T11:13:20;94926.50;;;9.81;nan
10832;BME280;5469;48.574;8.768;2023-03-15T11:16:02;94929.63;;;9.37;nan
10832;BME280;5469;48.574;8.768;2023-03-15T11:18:44;94927.50;;;9.29;nan
10832;BME280;5469;48.574;8.768;2023-03-15T11:21:23;94931.66;;;9.05;nan
10832;BME280;5469;48.574;8.768;2023-03-15T11:23:59;94931.66;;;9.05;nan
10832;BME280;5469;48.574;8.768;2023-03-15T11:26:39;94932.25;;;9.22;nan
10832;BME280;5469;48.574;8.768;2023-03-15T11:29:17;94933.13;;;9.84;nan
10832;BME280;5469;48.574;8.768;2023-03-15T11:31:55;94935.22;;;9.77;nan
10832;BME280;5469;48.574;8.768;2023-03-15T11:34:41;94931.53;;;9.83;nan
10832;BME280;5469;48.574;8.768;2023-03-15T11:37:22;94926.72;;;9.54;nan
10832;BME280;5469;48.574;8.768;2023-03-15T11:40:15;94921.44;;;9.29;nan
10832;BME280;5469;48.574;8.768;2023-03-15T11:42:57;94922.97;;;9.14;nan
10832;BME280;5469;48.574;8.768;2023-03-15T11:45:37;94916.78;;;8.88;nan
10832;BME280;5469;48.574;8.768;2023-03-15T11:48:18;94923.31;;;9.84;nan
10832;BME280;5469;48.574;8.768;2023-03-15T11:50:56;94928.25;;;9.19;nan
10832;BME280;5469;48.574;8.768;2023-03-15T11:53:36;94928.31;;;9.35;nan
10832;BME280;5469;48.574;8.768;2023-03-15T11:56:25;94901.75;;;12.07;nan
10832;BME280;5469;48.574;8.768;2023-03-15T11:59:09;94918.47;;;12.07;nan
10832;BME280;5469;48.574;8.768;2023-03-15T12:01:47;94909.50;;;12.56;nan
10832;BME280;5469;48.574;8.768;2023-03-15T12:04:41;94916.06;;;12.64;nan
10832;BME280;5469;48.574;8.768;2023-03-15T12:07:39;94909.06;;;11.91;nan
10832;BME280;5469;48.574;8.768;2023-03-15T12:10:37;94901.09;;;11.86;nan
10832;BME280;5469;48.574;8.768;2023-03-15T12:13:22;94894.19;;;11.50;nan
10832;BME280;5469;48.574;8.768;2023-03-15T12:15:59;94914.22;;;12.06;nan
10832;BME280;5469;48.574;8.768;2023-03-15T12:18:41;94906.53;;;12.34;nan
10832;BME280;5469;48.574;8.768;2023-03-15T12:21:19;94903.63;;;11.22;nan
10832;BME280;5469;48.574;8.768;2023-03-15T12:24:01;94913.50;;;10.26;nan
10832;BME280;5469;48.574;8.768;2023-03-15T12:26:41;94900.00;;;11.13;nan
10832;BME280;5469;48.574;8.768;2023-03-15T12:29:22;94901.94;;;11.42;nan
10832;BME280;5469;48.574;8.768;2023-03-15T12:32:06;94904.75;;;10.41;nan
10832;BME280;5469;48.574;8.768;2023-03-15T12:34:48;94908.31;;;10.86;nan
10832;BME280;5469;48.574;8.768;2023-03-15T12:37:26;94906.75;;;10.80;nan
10832;BME280;5469;48.574;8.768;2023-03-15T12:40:28;94895.94;;;11.65;nan
10832;BME280;5469;48.574;8.768;2023-03-15T12:43:01;94891.69;;;13.24;nan
10832;BME280;5469;48.574;8.768;2023-03-15T12:45:46;94900.94;;;13.07;nan
10832;BME280;5469;48.574;8.768;2023-03-15T12:48:25;94889.09;;;15.10;nan
10832;BME280;5469;48.574;8.768;2023-03-15T12:51:06;94885.75;;;15.41;nan
10832;BME280;5469;48.574;8.768;2023-03-15T12:53:50;94894.91;;;12.30;nan
10832;BME280;5469;48.574;8.768;2023-03-15T12:56:34;94893.00;;;12.59;nan
10832;BME280;5469;48.574;8.768;2023-03-15T12:59:16;94898.59;;;14.89;nan
10832;BME280;5469;48.574;8.768;2023-03-15T13:01:54;94890.34;;;14.43;nan
10832;BME280;5469;48.574;8.768;2023-03-15T13:04:32;94908.72;;;13.80;nan
10832;BME280;5469;48.574;8.768;2023-03-15T13:07:20;94894.16;;;14.98;nan
10832;BME280;5469;48.574;8.768;2023-03-15T13:10:08;94893.78;;;14.44;nan
10832;BME280;5469;48.574;8.768;2023-03-15T13:12:55;94902.59;;;12.55;nan
10832;BME280;5469;48.574;8.768;2023-03-15T13:15:38;94905.59;;;12.73;nan
10832;BME280;5469;48.574;8.768;2023-03-15T13:18:20;94908.00;;;12.45;nan
10832;BME280;5469;48.574;8.768;2023-03-15T13:21:04;94910.50;;;12.60;nan
10832;BME280;5469;48.574;8.768;2023-03-15T13:23:46;94910.50;;;12.60;nan
10832;BME280;5469;48.574;8.768;2023-03-15T13:26:47;94904.25;;;11.04;nan
10832;BME280;5469;48.574;8.768;2023-03-15T13:29:29;94911.22;;;10.89;nan
10832;BME280;5469;48.574;8.768;2023-03-15T13:32:13;94917.25;;;9.94;nan
10832;BME280;5469;48.574;8.768;2023-03-15T13:34:50;94906.66;;;9.94;nan
10832;BME280;5469;48.574;8.768;2023-03-15T13:37:26;94931.53;;;9.83;nan
10832;BME280;5469;48.574;8.768;2023-03-15T13:40:04;94939.47;;;9.78;nan
10832;BME280;5469;48.574;8.768;2023-03-15T13:42:44;94928.38;;;9.81;nan
10832;BME280;5469;48.574;8.768;2023-03-15T13:45:23;94938.97;;;9.81;nan
10832;BME280;5469;48.574;8.768;2023-03-15T13:48:05;94921.75;;;9.94;nan
10832;BME280;5469;48.574;8.768;2023-03-15T13:50:41;94922.41;;;10.76;nan
10832;BME280;5469;48.574;8.768;2023-03-15T13:53:25;94911.84;;;10.66;nan
10832;BME280;5469;48.574;8.768;2023-03-15T13:56:04;94920.38;;;10.17;nan
10832;BME280;5469;48.574;8.768;2023-03-15T13:58:41;94929.94;;;10.33;nan
10832;BME280;5469;48.574;8.768;2023-03-15T14:01:18;94918.81;;;10.05;nan
10832;BME280;5469;48.574;8.768;2023-03-15T14:03:58;94918.81;;;9.65;nan
10832;BME280;5469;48.574;8.768;2023-03-15T14:06:37;94916.03;;;10.82;nan
10832;BME280;5469;48.574;8.768;2023-03-15T14:09:19;94921.72;;;9.48;nan
10832;BME280;5469;48.574;8.768;2023-03-15T14:12:03;94927.28;;;9.77;nan
10832;BME280;5469;48.574;8.768;2023-03-15T14:14:48;94922.00;;;10.07;nan
10832;BME280;5469;48.574;8.768;2023-03-15T14:17:28;94910.28;;;10.49;nan
10832;BME280;5469;48.574;8.768;2023-03-15T14:20:13;94912.34;;;10.73;nan
10832;BME280;5469;48.574;8.768;2023-03-15T14:22:50;94906.13;;;9.97;nan
10832;BME280;5469;48.574;8.768;2023-03-15T14:25:27;94915.13;;;9.55;nan
10832;BME280;5469;48.574;8.768;2023-03-15T14:28:05;94913.28;;;9.81;nan
10832;BME280;5469;48.574;8.768;2023-03-15T14:30:53;94921.34;;;8.98;nan
10832;BME280;5469;48.574;8.768;2023-03-15T14:33:32;94917.03;;;8.82;nan
10832;BME280;5469;48.574;8.768;2023-03-15T14:36:20;94909.19;;;9.12;nan
10832;BME280;5469;48.574;8.768;2023-03-15T14:38:58;94930.81;;;8.89;nan
10832;BME280;5469;48.574;8.768;2023-03-15T14:41:37;94925.59;;;8.09;nan
10832;BME280;5469;48.574;8.768;2023-03-15T14:44:13;94921.25;;;7.93;nan
10832;BME280;5469;48.574;8.768;2023-03-15T14:46:49;94924.00;;;8.08;nan
10832;BME280;5469;48.574;8.768;2023-03-15T14:49:28;94921.94;;;8.58;nan
10832;BME280;5469;48.574;8.768;2023-03-15T14:52:04;94929.88;;;7.83;nan
10832;BME280;5469;48.574;8.768;2023-03-15T14:54:41;94946.13;;;7.37;nan